Brigg, United Kingdom
Current Conditions -  °F | °C
As of 8:20 AM on Thursday 27 Nov 2014 (Local Time) from EGNJ Reporting Station
Haze Haze  
Wind Chill:   Ceiling: 2100
Heat Index:   Visibility: 2.1mi
Dew Point:   Wind: 3mph
Humidity: 93%   Direction: 90°E
Pressure: 29.62"   Gusts: NA
Location:  53.55°N, 0.49°W
Report Text: EGNJ 270820Z 09003KT 3500 BR SCT011 BKN021 09/08 Q1003
Loading
Personal Weather Stations






























Interactive Weather Map New forecast layout! Learn more

10-Day Weather Forecast

Advertisements
Track Severe Weather on mobile